MiSS Stacie — WDF5915 — position and weather

sailwx.info

Track history (hours):
 
Tides and Currents Weather Stations Pressure Air Temp Water Temp Dewpoint Dewpoint Depression Visibility Wind Speed Wind Dir Waves Ship Positions

MiSS Stacie

Owner: Crosby Marine Transportation LLC, Golden Meadow, LA. More information available from US FCC via Universal Licensing System and Coast Guard Vessel Documentation Center.

Last reported at 2018-Jun-21 06:49 UTC. Time now 2018-Jun-22 20:18 UTC.
Position N 28°58' W 095°17'.

Length 20 m; draft 2 m.

Type: Tug. MMSI: 367468640.

Date/timePositionNaut miles runAvg speedWind from/ knotsBaromVisibWave heightAir tempDewpointWater temp
2018-Jun-21 06:49N 28°58' W 095°17'1 2.9
2018-Jun-21 06:19N 28°59' W 095°16'1 3.8
2018-Jun-21 06:00N 29°00' W 095°15'4 7.3
2018-Jun-21 05:30N 29°03' W 095°13'4 7.1
2018-Jun-21 05:01N 29°07' W 095°12'3 6.8
2018-Jun-21 04:30N 29°09' W 095°09'3 6.7
2018-Jun-21 04:01N 29°11' W 095°06'3 6.9
2018-Jun-21 03:31N 29°13' W 095°02'3 6.6
2018-Jun-21 03:01N 29°15' W 094°60'3 6.4
2018-Jun-21 02:31N 29°17' W 094°57'3 6.2
2018-Jun-21 02:00N 29°17' W 094°53'3 6.5
2018-Jun-21 01:31N 29°20' W 094°51'2 2.7
2018-Jun-21 00:54N 29°21' W 094°49'0 0.1
2018-Jun-21 00:24N 29°21' W 094°49'0 0.1
2018-Jun-21 00:00N 29°21' W 094°49'0 0.8
2018-Jun-20 23:24N 29°21' W 094°49'0 0.0
2018-Jun-20 23:00N 29°21' W 094°49'0 0.0
2018-Jun-20 22:27N 29°21' W 094°49'0 0.0
2018-Jun-20 22:00N 29°21' W 094°49'0 0.0
2018-Jun-20 21:30N 29°21' W 094°49'0 0.0
2018-Jun-20 20:54N 29°21' W 094°49'0 0.0
2018-Jun-20 19:48N 29°21' W 094°49'0 0.0
2018-Jun-20 19:24N 29°21' W 094°49'0 0.0
2018-Jun-20 19:00N 29°21' W 094°49'0 0.1
2018-Jun-20 18:30N 29°21' W 094°49'15 5.7
2018-Jun-20 15:49N 29°35' W 094°56'2 6.1
2018-Jun-20 15:29N 29°37' W 094°57'5 6.5
2018-Jun-20 14:45N 29°41' W 094°59'2 5.7
2018-Jun-20 14:27N 29°42' W 095°01'1 0.0
2018-Jun-19 02:31N 29°43' W 095°01'1 6.6
2018-Jun-19 02:26N 29°42' W 095°01'4 6.8
2018-Jun-19 01:48N 29°39' W 094°58'2 7.4
2018-Jun-19 01:28N 29°36' W 094°57'4 7.5
2018-Jun-19 00:56N 29°33' W 094°55'4 7.4
2018-Jun-19 00:26N 29°30' W 094°52'3 7.0
2018-Jun-19 00:00N 29°27' W 094°51'3 6.9
2018-Jun-18 23:30N 29°24' W 094°49'3 5.1
2018-Jun-18 23:00N 29°23' W 094°47'22 6.0
2018-Jun-18 19:15N 29°35' W 094°25'1 4.7
2018-Jun-18 18:58N 29°36' W 094°24'5 4.3
2018-Jun-18 17:48N 29°38' W 094°18'1 4.9
2018-Jun-18 17:30N 29°39' W 094°17'4 7.7
2018-Jun-18 17:00N 29°40' W 094°13'4 7.5
2018-Jun-18 16:30N 29°42' W 094°09'4 7.9
2018-Jun-18 16:00N 29°44' W 094°05'4 8.0
2018-Jun-18 15:30N 29°47' W 094°02'4 7.7
2018-Jun-18 15:00N 29°49' W 093°58'3 6.1
2018-Jun-18 14:30N 29°52' W 093°56'3 6.6
2018-Jun-18 14:00N 29°54' W 093°54'3 6.3
2018-Jun-18 13:30N 29°57' W 093°52'1 1.9
2018-Jun-18 12:59N 29°58' W 093°52'0 0.0
2018-Jun-18 12:29N 29°58' W 093°52'0 0.0
2018-Jun-18 11:59N 29°58' W 093°52'0 0.0
2018-Jun-18 11:29N 29°58' W 093°52'0 0.0
2018-Jun-18 10:59N 29°58' W 093°52'0 0.0
2018-Jun-18 10:29N 29°58' W 093°52'0 0.0
2018-Jun-18 09:56N 29°58' W 093°52'0 0.0
2018-Jun-18 09:29N 29°58' W 093°52'0 0.0
2018-Jun-18 08:59N 29°58' W 093°52'0 0.0
2018-Jun-18 08:26N 29°58' W 093°52'0 0.0
2018-Jun-18 07:59N 29°58' W 093°52'0 0.2
2018-Jun-18 07:30N 29°58' W 093°52'1 1.8
2018-Jun-18 07:00N 29°57' W 093°52'3 6.3
2018-Jun-18 06:30N 29°59' W 093°49'4 7.3
2018-Jun-18 06:00N 30°01' W 093°46'4 7.0
2018-Jun-18 05:30N 30°03' W 093°43'6 7.3
2018-Jun-18 04:44N 30°04' W 093°36'3 7.0
2018-Jun-18 04:21N 30°04' W 093°33'3 7.3
2018-Jun-18 03:59N 30°04' W 093°30'4 7.5
2018-Jun-18 03:30N 30°04' W 093°26'3 5.7
2018-Jun-18 03:00N 30°04' W 093°22'2 2.9
2018-Jun-18 02:28N 30°04' W 093°21'0 1.0
2018-Jun-18 02:00N 30°04' W 093°20'2 4.1
2018-Jun-18 01:30N 30°06' W 093°20'3 5.4
2018-Jun-18 01:00N 30°09' W 093°20'3 6.5
2018-Jun-18 00:30N 30°12' W 093°18'1 2.8
2018-Jun-18 00:00N 30°13' W 093°19'1 1.1
2018-Jun-17 23:28N 30°12' W 093°19'0 0.7
2018-Jun-17 22:59N 30°12' W 093°19'0 0.0
2018-Jun-17 22:29N 30°12' W 093°19'0 0.0
2018-Jun-17 21:59N 30°12' W 093°19'0 0.0
2018-Jun-17 21:26N 30°12' W 093°19'0 0.0
2018-Jun-17 20:59N 30°12' W 093°19'0 0.0
2018-Jun-17 20:29N 30°12' W 093°19'0 0.0
2018-Jun-17 19:59N 30°12' W 093°19'0 0.0
2018-Jun-17 19:29N 30°12' W 093°19'0 0.0
2018-Jun-17 18:59N 30°12' W 093°19'0 0.0
2018-Jun-17 18:29N 30°12' W 093°19'0 0.0
2018-Jun-17 17:59N 30°12' W 093°19'0 0.0
2018-Jun-17 17:29N 30°12' W 093°19'0 0.0
2018-Jun-17 16:59N 30°12' W 093°19'0 0.0
2018-Jun-17 16:29N 30°12' W 093°19'0 0.0
2018-Jun-17 15:59N 30°12' W 093°19'0 0.0
2018-Jun-17 15:29N 30°12' W 093°19'0 0.0
2018-Jun-17 14:59N 30°12' W 093°19'0 0.0
2018-Jun-17 14:29N 30°12' W 093°19'0 0.0
2018-Jun-17 13:59N 30°12' W 093°19'0 0.0
2018-Jun-17 13:29N 30°12' W 093°19'0 0.0
2018-Jun-17 12:59N 30°12' W 093°19'0 0.0
2018-Jun-17 12:26N 30°12' W 093°19'0 0.0
2018-Jun-17 11:56N 30°12' W 093°19'0 0.0
2018-Jun-17 11:29N 30°12' W 093°19'0 0.0
2018-Jun-17 11:00N 30°12' W 093°19'0 0.0
2018-Jun-17 10:26N 30°12' W 093°19'0 0.0
2018-Jun-17 09:56N 30°12' W 093°19'0 0.0
2018-Jun-17 09:29N 30°12' W 093°19'0 0.0
2018-Jun-17 08:59N 30°12' W 093°19'0 0.0
2018-Jun-17 08:29N 30°12' W 093°19'0 0.0
2018-Jun-17 07:59N 30°12' W 093°19'0 0.0
2018-Jun-17 07:29N 30°12' W 093°19'0 0.0
2018-Jun-17 06:59N 30°12' W 093°19'0 0.0
2018-Jun-17 06:29N 30°12' W 093°19'0 0.0
2018-Jun-17 05:59N 30°12' W 093°19'0 0.0
2018-Jun-17 05:29N 30°12' W 093°19'0 0.0
2018-Jun-17 04:53N 30°12' W 093°19'0 0.0
2018-Jun-17 04:29N 30°12' W 093°19'0 0.0
2018-Jun-17 03:59N 30°12' W 093°19'0 0.0
2018-Jun-17 03:26N 30°12' W 093°19'0 0.0
2018-Jun-17 02:58N 30°12' W 093°19'0 0.0
2018-Jun-17 02:29N 30°12' W 093°19'0 0.0
2018-Jun-17 01:58N 30°12' W 093°19'0 0.0
2018-Jun-17 01:28N 30°12' W 093°19'0 0.0
2018-Jun-17 00:59N 30°12' W 093°19'0 0.0
2018-Jun-17 00:29N 30°12' W 093°19'0 0.0
2018-Jun-16 23:58N 30°12' W 093°19'0 0.0
2018-Jun-16 23:28N 30°12' W 093°19'0 0.0
2018-Jun-16 22:59N 30°12' W 093°19'0 0.0
2018-Jun-16 22:28N 30°12' W 093°19'0 0.0
2018-Jun-16 21:58N 30°12' W 093°19'0 0.0
2018-Jun-16 21:28N 30°12' W 093°19'0 0.0
2018-Jun-16 20:59N 30°12' W 093°19'0 0.0
2018-Jun-16 20:28N 30°12' W 093°19'0 0.0
2018-Jun-16 19:58N 30°12' W 093°19'0 0.0
2018-Jun-16 19:25N 30°12' W 093°19'0 0.0
2018-Jun-16 18:58N 30°12' W 093°19'0 0.0
2018-Jun-16 18:28N 30°12' W 093°19'0 0.0
2018-Jun-16 17:58N 30°12' W 093°19'0 0.1
2018-Jun-16 17:28N 30°12' W 093°19'1 1.1
2018-Jun-16 16:59N 30°13' W 093°19'1 1.4
2018-Jun-16 16:30N 30°13' W 093°18'1 2.3
2018-Jun-16 16:00N 30°12' W 093°18'3 6.9
2018-Jun-16 15:30N 30°09' W 093°20'4 7.2
2018-Jun-16 15:01N 30°05' W 093°20'2 4.9
2018-Jun-16 14:30N 30°04' W 093°22'1 1.8
2018-Jun-16 13:58N 30°04' W 093°23'0 0.8
2018-Jun-16 13:30N 30°04' W 093°24'2 5.0
2018-Jun-16 13:00N 30°04' W 093°27'3 5.6
2018-Jun-16 12:30N 30°04' W 093°30'6 5.8
2018-Jun-16 11:24N 30°04' W 093°37'3 5.7
2018-Jun-16 10:54N 30°04' W 093°40'2 6.0
2018-Jun-16 10:30N 30°03' W 093°43'2 4.6
2018-Jun-16 10:00N 30°01' W 093°45'3 6.1
2018-Jun-16 09:30N 29°59' W 093°47'3 6.5
2018-Jun-16 09:00N 29°58' W 093°51'3 6.7
2018-Jun-16 08:30N 29°59' W 093°55'2 3.5
2018-Jun-16 07:59N 29°60' W 093°57'0 0.0
2018-Jun-16 07:29N 29°60' W 093°57'0 0.0
2018-Jun-16 06:56N 29°60' W 093°57'0 0.0
2018-Jun-16 06:29N 29°60' W 093°57'0 0.0
2018-Jun-16 05:59N 29°60' W 093°57'0 0.0
2018-Jun-16 05:29N 29°60' W 093°57'0 0.0
2018-Jun-16 04:59N 29°60' W 093°57'0 0.0
2018-Jun-16 04:29N 29°60' W 093°57'0 0.0
2018-Jun-16 03:59N 29°60' W 093°57'0 0.0
2018-Jun-16 03:29N 29°60' W 093°57'0 0.0
2018-Jun-16 02:59N 29°60' W 093°57'0 0.0
2018-Jun-16 02:29N 29°60' W 093°57'0 0.0
2018-Jun-16 01:59N 29°60' W 093°57'0 0.0
2018-Jun-16 01:29N 29°60' W 093°57'0 0.0
2018-Jun-16 00:59N 29°60' W 093°57'0 0.0
2018-Jun-16 00:29N 29°60' W 093°57'0 0.0
2018-Jun-15 23:59N 29°60' W 093°57'0 0.0
2018-Jun-15 23:26N 29°60' W 093°57'0 0.0
2018-Jun-15 22:59N 29°60' W 093°57'0 0.0
2018-Jun-15 22:29N 29°60' W 093°57'0 0.0
2018-Jun-15 21:59N 29°60' W 093°57'0 0.0
2018-Jun-15 21:29N 29°60' W 093°57'0 0.0
2018-Jun-15 20:59N 29°60' W 093°57'2 3.9
2018-Jun-15 20:30N 29°59' W 093°55'3 6.2
2018-Jun-15 20:00N 29°58' W 093°51'0 0.6
2018-Jun-15 19:30N 29°58' W 093°52'0 0.0
2018-Jun-15 19:00N 29°58' W 093°52'0 0.0
2018-Jun-15 18:30N 29°58' W 093°52'0 0.0
2018-Jun-15 18:00N 29°58' W 093°52'0 0.0
2018-Jun-15 17:30N 29°58' W 093°52'0 0.0
2018-Jun-15 17:00N 29°58' W 093°52'0 0.0
2018-Jun-15 16:30N 29°58' W 093°52'0 0.0
2018-Jun-15 16:00N 29°58' W 093°52'0 0.0
2018-Jun-15 15:30N 29°58' W 093°52'0 0.0
2018-Jun-15 15:00N 29°58' W 093°52'0 0.0
2018-Jun-15 14:30N 29°58' W 093°52'0 0.0
2018-Jun-15 14:00N 29°58' W 093°52'0 0.0
2018-Jun-15 13:30N 29°58' W 093°52'0 0.0
2018-Jun-15 13:00N 29°58' W 093°52'0 0.0
2018-Jun-15 12:24N 29°58' W 093°52'0 0.0
2018-Jun-15 12:00N 29°58' W 093°52'0 0.0
2018-Jun-15 11:30N 29°58' W 093°52'0 0.0
2018-Jun-15 10:57N 29°58' W 093°52'0 0.0
2018-Jun-15 10:30N 29°58' W 093°52'0 0.0
2018-Jun-15 10:00N 29°58' W 093°52'0 0.0
2018-Jun-15 09:30N 29°58' W 093°52'0 0.0
2018-Jun-15 09:00N 29°58' W 093°52'0 0.0
2018-Jun-15 08:30N 29°58' W 093°52'0 0.0
2018-Jun-15 07:57N 29°58' W 093°52'0 0.0
2018-Jun-15 07:24N 29°58' W 093°52'0 0.0
2018-Jun-15 07:00N 29°58' W 093°52'0 0.0
2018-Jun-15 06:15N 29°58' W 093°52'0 0.0
2018-Jun-15 06:00N 29°58' W 093°52'0 0.0
2018-Jun-15 05:30N 29°58' W 093°52'0 0.0
2018-Jun-15 05:00N 29°58' W 093°52'0 0.0
2018-Jun-15 04:30N 29°58' W 093°52'0 0.0
2018-Jun-15 04:00N 29°58' W 093°52'0 0.0
2018-Jun-15 03:27N 29°58' W 093°52'0 0.0
2018-Jun-15 03:00N 29°58' W 093°52'0 0.2
2018-Jun-15 02:29N 29°58' W 093°52'2 3.4
2018-Jun-15 02:01N 29°56' W 093°52'3 6.7
2018-Jun-15 01:31N 29°54' W 093°55'3 6.8
2018-Jun-15 01:00N 29°51' W 093°57'3 6.2
2018-Jun-15 00:31N 29°49' W 093°60'4 7.5
2018-Jun-15 00:00N 29°46' W 094°03'4 7.4
2018-Jun-14 23:31N 29°44' W 094°06'4 7.2
2018-Jun-14 23:00N 29°42' W 094°09'4 6.5
2018-Jun-14 22:28N 29°40' W 094°13'39 4.8
2018-Jun-14 14:19N 29°37' W 094°57'4 7.2
2018-Jun-14 13:44N 29°41' W 094°59'  
Track history (hours):
 
Tides and Currents Weather Stations Pressure Air Temp Water Temp Dewpoint Dewpoint Depression Visibility Wind Speed Wind Dir Waves Ship Positions

MiSS Stacie

Owner: Crosby Marine Transportation LLC, Golden Meadow, LA. More information available from US FCC via Universal Licensing System and Coast Guard Vessel Documentation Center.

Last reported at 2018-Jun-21 06:49 UTC. Time now 2018-Jun-22 20:18 UTC.
Position N 28°58' W 095°17'.

Length 20 m; draft 2 m.

Type: Tug. MMSI: 367468640.

Date/timePositionNaut miles runAvg speedWind from/ knotsBaromVisibWave heightAir tempDewpointWater temp
2018-Jun-21 06:49N 28°58' W 095°17'1 2.9
2018-Jun-21 06:19N 28°59' W 095°16'1 3.8
2018-Jun-21 06:00N 29°00' W 095°15'4 7.3
2018-Jun-21 05:30N 29°03' W 095°13'4 7.1
2018-Jun-21 05:01N 29°07' W 095°12'3 6.8
2018-Jun-21 04:30N 29°09' W 095°09'3 6.7
2018-Jun-21 04:01N 29°11' W 095°06'3 6.9
2018-Jun-21 03:31N 29°13' W 095°02'3 6.6
2018-Jun-21 03:01N 29°15' W 094°60'3 6.4
2018-Jun-21 02:31N 29°17' W 094°57'3 6.2
2018-Jun-21 02:00N 29°17' W 094°53'3 6.5
2018-Jun-21 01:31N 29°20' W 094°51'2 2.7
2018-Jun-21 00:54N 29°21' W 094°49'0 0.1
2018-Jun-21 00:24N 29°21' W 094°49'0 0.1
2018-Jun-21 00:00N 29°21' W 094°49'0 0.8
2018-Jun-20 23:24N 29°21' W 094°49'0 0.0
2018-Jun-20 23:00N 29°21' W 094°49'0 0.0
2018-Jun-20 22:27N 29°21' W 094°49'0 0.0
2018-Jun-20 22:00N 29°21' W 094°49'0 0.0
2018-Jun-20 21:30N 29°21' W 094°49'0 0.0
2018-Jun-20 20:54N 29°21' W 094°49'0 0.0
2018-Jun-20 19:48N 29°21' W 094°49'0 0.0
2018-Jun-20 19:24N 29°21' W 094°49'0 0.0
2018-Jun-20 19:00N 29°21' W 094°49'0 0.1
2018-Jun-20 18:30N 29°21' W 094°49'15 5.7
2018-Jun-20 15:49N 29°35' W 094°56'2 6.1
2018-Jun-20 15:29N 29°37' W 094°57'5 6.5
2018-Jun-20 14:45N 29°41' W 094°59'2 5.7
2018-Jun-20 14:27N 29°42' W 095°01'1 0.0
2018-Jun-19 02:31N 29°43' W 095°01'1 6.6
2018-Jun-19 02:26N 29°42' W 095°01'4 6.8
2018-Jun-19 01:48N 29°39' W 094°58'2 7.4
2018-Jun-19 01:28N 29°36' W 094°57'4 7.5
2018-Jun-19 00:56N 29°33' W 094°55'4 7.4
2018-Jun-19 00:26N 29°30' W 094°52'3 7.0
2018-Jun-19 00:00N 29°27' W 094°51'3 6.9
2018-Jun-18 23:30N 29°24' W 094°49'3 5.1
2018-Jun-18 23:00N 29°23' W 094°47'22 6.0
2018-Jun-18 19:15N 29°35' W 094°25'1 4.7
2018-Jun-18 18:58N 29°36' W 094°24'5 4.3
2018-Jun-18 17:48N 29°38' W 094°18'1 4.9
2018-Jun-18 17:30N 29°39' W 094°17'4 7.7
2018-Jun-18 17:00N 29°40' W 094°13'4 7.5
2018-Jun-18 16:30N 29°42' W 094°09'4 7.9
2018-Jun-18 16:00N 29°44' W 094°05'4 8.0
2018-Jun-18 15:30N 29°47' W 094°02'4 7.7
2018-Jun-18 15:00N 29°49' W 093°58'3 6.1
2018-Jun-18 14:30N 29°52' W 093°56'3 6.6
2018-Jun-18 14:00N 29°54' W 093°54'3 6.3
2018-Jun-18 13:30N 29°57' W 093°52'1 1.9
2018-Jun-18 12:59N 29°58' W 093°52'0 0.0
2018-Jun-18 12:29N 29°58' W 093°52'0 0.0
2018-Jun-18 11:59N 29°58' W 093°52'0 0.0
2018-Jun-18 11:29N 29°58' W 093°52'0 0.0
2018-Jun-18 10:59N 29°58' W 093°52'0 0.0
2018-Jun-18 10:29N 29°58' W 093°52'0 0.0
2018-Jun-18 09:56N 29°58' W 093°52'0 0.0
2018-Jun-18 09:29N 29°58' W 093°52'0 0.0
2018-Jun-18 08:59N 29°58' W 093°52'0 0.0
2018-Jun-18 08:26N 29°58' W 093°52'0 0.0
2018-Jun-18 07:59N 29°58' W 093°52'0 0.2
2018-Jun-18 07:30N 29°58' W 093°52'1 1.8
2018-Jun-18 07:00N 29°57' W 093°52'3 6.3
2018-Jun-18 06:30N 29°59' W 093°49'4 7.3
2018-Jun-18 06:00N 30°01' W 093°46'4 7.0
2018-Jun-18 05:30N 30°03' W 093°43'6 7.3
2018-Jun-18 04:44N 30°04' W 093°36'3 7.0
2018-Jun-18 04:21N 30°04' W 093°33'3 7.3
2018-Jun-18 03:59N 30°04' W 093°30'4 7.5
2018-Jun-18 03:30N 30°04' W 093°26'3 5.7
2018-Jun-18 03:00N 30°04' W 093°22'2 2.9
2018-Jun-18 02:28N 30°04' W 093°21'0 1.0
2018-Jun-18 02:00N 30°04' W 093°20'2 4.1
2018-Jun-18 01:30N 30°06' W 093°20'3 5.4
2018-Jun-18 01:00N 30°09' W 093°20'3 6.5
2018-Jun-18 00:30N 30°12' W 093°18'1 2.8
2018-Jun-18 00:00N 30°13' W 093°19'1 1.1
2018-Jun-17 23:28N 30°12' W 093°19'0 0.7
2018-Jun-17 22:59N 30°12' W 093°19'0 0.0
2018-Jun-17 22:29N 30°12' W 093°19'0 0.0
2018-Jun-17 21:59N 30°12' W 093°19'0 0.0
2018-Jun-17 21:26N 30°12' W 093°19'0 0.0
2018-Jun-17 20:59N 30°12' W 093°19'0 0.0
2018-Jun-17 20:29N 30°12' W 093°19'0 0.0
2018-Jun-17 19:59N 30°12' W 093°19'0 0.0
2018-Jun-17 19:29N 30°12' W 093°19'0 0.0
2018-Jun-17 18:59N 30°12' W 093°19'0 0.0
2018-Jun-17 18:29N 30°12' W 093°19'0 0.0
2018-Jun-17 17:59N 30°12' W 093°19'0 0.0
2018-Jun-17 17:29N 30°12' W 093°19'0 0.0
2018-Jun-17 16:59N 30°12' W 093°19'0 0.0
2018-Jun-17 16:29N 30°12' W 093°19'0 0.0
2018-Jun-17 15:59N 30°12' W 093°19'0 0.0
2018-Jun-17 15:29N 30°12' W 093°19'0 0.0
2018-Jun-17 14:59N 30°12' W 093°19'0 0.0
2018-Jun-17 14:29N 30°12' W 093°19'0 0.0
2018-Jun-17 13:59N 30°12' W 093°19'0 0.0
2018-Jun-17 13:29N 30°12' W 093°19'0 0.0
2018-Jun-17 12:59N 30°12' W 093°19'0 0.0
2018-Jun-17 12:26N 30°12' W 093°19'0 0.0
2018-Jun-17 11:56N 30°12' W 093°19'0 0.0
2018-Jun-17 11:29N 30°12' W 093°19'0 0.0
2018-Jun-17 11:00N 30°12' W 093°19'0 0.0
2018-Jun-17 10:26N 30°12' W 093°19'0 0.0
2018-Jun-17 09:56N 30°12' W 093°19'0 0.0
2018-Jun-17 09:29N 30°12' W 093°19'0 0.0
2018-Jun-17 08:59N 30°12' W 093°19'0 0.0
2018-Jun-17 08:29N 30°12' W 093°19'0 0.0
2018-Jun-17 07:59N 30°12' W 093°19'0 0.0
2018-Jun-17 07:29N 30°12' W 093°19'0 0.0
2018-Jun-17 06:59N 30°12' W 093°19'0 0.0
2018-Jun-17 06:29N 30°12' W 093°19'0 0.0
2018-Jun-17 05:59N 30°12' W 093°19'0 0.0
2018-Jun-17 05:29N 30°12' W 093°19'0 0.0
2018-Jun-17 04:53N 30°12' W 093°19'0 0.0
2018-Jun-17 04:29N 30°12' W 093°19'0 0.0
2018-Jun-17 03:59N 30°12' W 093°19'0 0.0
2018-Jun-17 03:26N 30°12' W 093°19'0 0.0
2018-Jun-17 02:58N 30°12' W 093°19'0 0.0
2018-Jun-17 02:29N 30°12' W 093°19'0 0.0
2018-Jun-17 01:58N 30°12' W 093°19'0 0.0
2018-Jun-17 01:28N 30°12' W 093°19'0 0.0
2018-Jun-17 00:59N 30°12' W 093°19'0 0.0
2018-Jun-17 00:29N 30°12' W 093°19'0 0.0
2018-Jun-16 23:58N 30°12' W 093°19'0 0.0
2018-Jun-16 23:28N 30°12' W 093°19'0 0.0
2018-Jun-16 22:59N 30°12' W 093°19'0 0.0
2018-Jun-16 22:28N 30°12' W 093°19'0 0.0
2018-Jun-16 21:58N 30°12' W 093°19'0 0.0
2018-Jun-16 21:28N 30°12' W 093°19'0 0.0
2018-Jun-16 20:59N 30°12' W 093°19'0 0.0
2018-Jun-16 20:28N 30°12' W 093°19'0 0.0
2018-Jun-16 19:58N 30°12' W 093°19'0 0.0
2018-Jun-16 19:25N 30°12' W 093°19'0 0.0
2018-Jun-16 18:58N 30°12' W 093°19'0 0.0
2018-Jun-16 18:28N 30°12' W 093°19'0 0.0
2018-Jun-16 17:58N 30°12' W 093°19'0 0.1
2018-Jun-16 17:28N 30°12' W 093°19'1 1.1
2018-Jun-16 16:59N 30°13' W 093°19'1 1.4
2018-Jun-16 16:30N 30°13' W 093°18'1 2.3
2018-Jun-16 16:00N 30°12' W 093°18'3 6.9
2018-Jun-16 15:30N 30°09' W 093°20'4 7.2
2018-Jun-16 15:01N 30°05' W 093°20'2 4.9
2018-Jun-16 14:30N 30°04' W 093°22'1 1.8
2018-Jun-16 13:58N 30°04' W 093°23'0 0.8
2018-Jun-16 13:30N 30°04' W 093°24'2 5.0
2018-Jun-16 13:00N 30°04' W 093°27'3 5.6
2018-Jun-16 12:30N 30°04' W 093°30'6 5.8
2018-Jun-16 11:24N 30°04' W 093°37'3 5.7
2018-Jun-16 10:54N 30°04' W 093°40'2 6.0
2018-Jun-16 10:30N 30°03' W 093°43'2 4.6
2018-Jun-16 10:00N 30°01' W 093°45'3 6.1
2018-Jun-16 09:30N 29°59' W 093°47'3 6.5
2018-Jun-16 09:00N 29°58' W 093°51'3 6.7
2018-Jun-16 08:30N 29°59' W 093°55'2 3.5
2018-Jun-16 07:59N 29°60' W 093°57'0 0.0
2018-Jun-16 07:29N 29°60' W 093°57'0 0.0
2018-Jun-16 06:56N 29°60' W 093°57'0 0.0
2018-Jun-16 06:29N 29°60' W 093°57'0 0.0
2018-Jun-16 05:59N 29°60' W 093°57'0 0.0
2018-Jun-16 05:29N 29°60' W 093°57'0 0.0
2018-Jun-16 04:59N 29°60' W 093°57'0 0.0
2018-Jun-16 04:29N 29°60' W 093°57'0 0.0
2018-Jun-16 03:59N 29°60' W 093°57'0 0.0
2018-Jun-16 03:29N 29°60' W 093°57'0 0.0
2018-Jun-16 02:59N 29°60' W 093°57'0 0.0
2018-Jun-16 02:29N 29°60' W 093°57'0 0.0
2018-Jun-16 01:59N 29°60' W 093°57'0 0.0
2018-Jun-16 01:29N 29°60' W 093°57'0 0.0
2018-Jun-16 00:59N 29°60' W 093°57'0 0.0
2018-Jun-16 00:29N 29°60' W 093°57'0 0.0
2018-Jun-15 23:59N 29°60' W 093°57'0 0.0
2018-Jun-15 23:26N 29°60' W 093°57'0 0.0
2018-Jun-15 22:59N 29°60' W 093°57'0 0.0
2018-Jun-15 22:29N 29°60' W 093°57'0 0.0
2018-Jun-15 21:59N 29°60' W 093°57'0 0.0
2018-Jun-15 21:29N 29°60' W 093°57'0 0.0
2018-Jun-15 20:59N 29°60' W 093°57'2 3.9
2018-Jun-15 20:30N 29°59' W 093°55'3 6.2
2018-Jun-15 20:00N 29°58' W 093°51'0 0.6
2018-Jun-15 19:30N 29°58' W 093°52'0 0.0
2018-Jun-15 19:00N 29°58' W 093°52'0 0.0
2018-Jun-15 18:30N 29°58' W 093°52'0 0.0
2018-Jun-15 18:00N 29°58' W 093°52'0 0.0
2018-Jun-15 17:30N 29°58' W 093°52'0 0.0
2018-Jun-15 17:00N 29°58' W 093°52'0 0.0
2018-Jun-15 16:30N 29°58' W 093°52'0 0.0
2018-Jun-15 16:00N 29°58' W 093°52'0 0.0
2018-Jun-15 15:30N 29°58' W 093°52'0 0.0
2018-Jun-15 15:00N 29°58' W 093°52'0 0.0
2018-Jun-15 14:30N 29°58' W 093°52'0 0.0
2018-Jun-15 14:00N 29°58' W 093°52'0 0.0
2018-Jun-15 13:30N 29°58' W 093°52'0 0.0
2018-Jun-15 13:00N 29°58' W 093°52'0 0.0
2018-Jun-15 12:24N 29°58' W 093°52'0 0.0
2018-Jun-15 12:00N 29°58' W 093°52'0 0.0
2018-Jun-15 11:30N 29°58' W 093°52'0 0.0
2018-Jun-15 10:57N 29°58' W 093°52'0 0.0
2018-Jun-15 10:30N 29°58' W 093°52'0 0.0
2018-Jun-15 10:00N 29°58' W 093°52'0 0.0
2018-Jun-15 09:30N 29°58' W 093°52'0 0.0
2018-Jun-15 09:00N 29°58' W 093°52'0 0.0
2018-Jun-15 08:30N 29°58' W 093°52'0 0.0
2018-Jun-15 07:57N 29°58' W 093°52'0 0.0
2018-Jun-15 07:24N 29°58' W 093°52'0 0.0
2018-Jun-15 07:00N 29°58' W 093°52'0 0.0
2018-Jun-15 06:15N 29°58' W 093°52'0 0.0
2018-Jun-15 06:00N 29°58' W 093°52'0 0.0
2018-Jun-15 05:30N 29°58' W 093°52'0 0.0
2018-Jun-15 05:00N 29°58' W 093°52'0 0.0
2018-Jun-15 04:30N 29°58' W 093°52'0 0.0
2018-Jun-15 04:00N 29°58' W 093°52'0 0.0
2018-Jun-15 03:27N 29°58' W 093°52'0 0.0
2018-Jun-15 03:00N 29°58' W 093°52'0 0.2
2018-Jun-15 02:29N 29°58' W 093°52'2 3.4
2018-Jun-15 02:01N 29°56' W 093°52'3 6.7
2018-Jun-15 01:31N 29°54' W 093°55'3 6.8
2018-Jun-15 01:00N 29°51' W 093°57'3 6.2
2018-Jun-15 00:31N 29°49' W 093°60'4 7.5
2018-Jun-15 00:00N 29°46' W 094°03'4 7.4
2018-Jun-14 23:31N 29°44' W 094°06'4 7.2
2018-Jun-14 23:00N 29°42' W 094°09'4 6.5
2018-Jun-14 22:28N 29°40' W 094°13'39 4.8
2018-Jun-14 14:19N 29°37' W 094°57'4 7.2
2018-Jun-14 13:44N 29°41' W 094°59'  

Dump ship's entire track history